Time;durP1;ratioP1;P1;durP2;ratioP2;P2;SDS_P1;SDS_P2;PMS_P1;PMS_P2;Temp;Humidity;BMP_temperature;BMP_pressure;BME280_temperature;BME280_humidity;BME280_pressure;Samples;Min_cycle;Max_cycle;Signal;HPM_P1;HPM_P2
2022/10/05 00:01:48;;;;;;;34.10;28.98;;;17.80;83.10;;;;;;5046388;28;20102;-55
2022/10/05 00:04:22;;;;;;;32.65;27.83;;;17.70;83.10;;;;;;5033452;28;20543;-56
2022/10/05 00:07:07;;;;;;;36.25;27.65;;;17.70;83.00;;;;;;5033580;28;20025;-56
2022/10/05 00:09:33;;;;;;;33.72;28.45;;;17.70;83.40;;;;;;5033396;28;20064;-57
2022/10/05 00:12:07;;;;;;;30.92;27.50;;;17.60;83.20;;;;;;5043449;28;20484;-57
2022/10/05 00:14:35;;;;;;;31.02;26.80;;;17.60;83.30;;;;;;5036189;28;20037;-55
2022/10/05 00:17:03;;;;;;;33.13;29.10;;;17.70;83.40;;;;;;5046937;28;20115;-57
2022/10/05 00:19:35;;;;;;;33.50;27.48;;;17.60;83.10;;;;;;5043214;28;20053;-55
2022/10/05 00:22:10;;;;;;;34.65;28.92;;;17.60;83.10;;;;;;5033585;28;20029;-57
2022/10/05 00:24:36;;;;;;;33.88;26.00;;;17.60;83.10;;;;;;5033215;28;20499;-57
2022/10/05 00:27:15;;;;;;;35.63;28.05;;;17.60;83.00;;;;;;5034313;28;20040;-57
2022/10/05 00:29:40;;;;;;;38.60;28.25;;;17.60;82.90;;;;;;5033889;28;20029;-57
2022/10/05 00:32:09;;;;;;;30.67;25.88;;;17.60;82.80;;;;;;5052799;28;20344;-57
2022/10/05 00:34:34;;;;;;;33.20;27.45;;;17.60;82.60;;;;;;5052980;28;20021;-55
2022/10/05 00:37:00;;;;;;;32.25;26.60;;;17.60;82.50;;;;;;5052817;28;20457;-57
2022/10/05 00:39:26;;;;;;;30.27;25.55;;;17.50;82.40;;;;;;5039233;28;20183;-57
2022/10/05 00:42:22;;;;;;;31.13;25.42;;;17.50;82.50;;;;;;5032762;28;20041;-56
2022/10/05 00:45:05;;;;;;;33.58;26.73;;;17.40;82.40;;;;;;5041850;28;20373;-56
2022/10/05 00:47:40;;;;;;;31.67;25.92;;;17.40;82.40;;;;;;5031470;28;20407;-57
2022/10/05 00:50:08;;;;;;;29.75;25.30;;;17.40;82.50;;;;;;5032525;28;20068;-55
2022/10/05 00:53:04;;;;;;;36.33;28.08;;;17.40;82.30;;;;;;5048529;28;20083;-57
2022/10/05 00:55:39;;;;;;;31.60;27.98;;;17.40;82.30;;;;;;5051016;28;20032;-56
2022/10/05 00:58:10;;;;;;;30.63;25.63;;;17.30;82.50;;;;;;5049560;28;20039;-55
2022/10/05 01:00:57;;;;;;;33.17;25.45;;;17.20;83.00;;;;;;5050818;28;20025;-57
2022/10/05 01:04:07;;;;;;;33.97;27.08;;;17.20;82.60;;;;;;5050461;28;20108;-56
2022/10/05 01:06:54;;;;;;;31.33;25.17;;;17.10;82.90;;;;;;5043202;28;20033;-57
2022/10/05 01:09:43;;;;;;;37.67;27.25;;;17.10;83.70;;;;;;5032279;28;20108;-57
2022/10/05 01:12:16;;;;;;;31.15;26.25;;;17.00;84.20;;;;;;5032714;28;20202;-56
2022/10/05 01:15:03;;;;;;;30.90;26.42;;;17.00;83.90;;;;;;5047446;28;20037;-57
2022/10/05 01:17:40;;;;;;;36.38;27.02;;;17.00;83.60;;;;;;5042231;28;20033;-56
2022/10/05 01:20:12;;;;;;;32.70;27.38;;;17.00;83.60;;;;;;5033556;28;20021;-57
2022/10/05 01:22:43;;;;;;;36.55;29.35;;;17.00;83.40;;;;;;5046873;28;20434;-58
2022/10/05 01:25:39;;;;;;;29.85;26.20;;;17.00;83.30;;;;;;5050620;28;20475;-57
2022/10/05 01:28:22;;;;;;;36.08;30.73;;;17.00;83.30;;;;;;5042227;28;20057;-58
2022/10/05 01:31:19;;;;;;;35.97;28.02;;;17.00;83.40;;;;;;5031911;28;20053;-58
2022/10/05 01:33:57;;;;;;;34.00;28.77;;;17.00;83.40;;;;;;5031043;28;20041;-57
2022/10/05 01:36:36;;;;;;;32.00;28.10;;;17.00;83.30;;;;;;5033160;28;20040;-57
2022/10/05 01:39:17;;;;;;;37.08;28.23;;;17.00;83.30;;;;;;5033188;28;20033;-55
2022/10/05 01:41:51;;;;;;;32.95;27.70;;;17.00;83.40;;;;;;5033563;28;20495;-57
2022/10/05 01:44:38;;;;;;;31.75;27.90;;;17.00;83.40;;;;;;5031927;28;20036;-57
2022/10/05 01:47:25;;;;;;;39.08;28.05;;;17.00;83.30;;;;;;5027388;28;20044;-57
2022/10/05 01:50:05;;;;;;;38.28;28.98;;;17.00;83.40;;;;;;5042210;28;20034;-57
2022/10/05 01:53:09;;;;;;;32.63;26.77;;;16.90;83.40;;;;;;5041719;28;20510;-57
2022/10/05 01:55:39;;;;;;;32.75;27.20;;;16.90;83.20;;;;;;5049777;28;20107;-57
2022/10/05 01:58:47;;;;;;;32.45;27.40;;;16.90;83.20;;;;;;5051417;28;20033;-56
2022/10/05 02:01:33;;;;;;;32.33;26.70;;;16.90;83.40;;;;;;5033532;28;20040;-56
2022/10/05 02:04:09;;;;;;;32.13;26.70;;;16.90;83.10;;;;;;5048506;28;20463;-57
2022/10/05 02:06:41;;;;;;;31.75;26.33;;;16.90;83.00;;;;;;5036883;28;20056;-57
2022/10/05 02:09:29;;;;;;;35.83;26.58;;;16.90;82.90;;;;;;5033962;28;20457;-57
2022/10/05 02:12:16;;;;;;;34.22;26.77;;;16.90;83.10;;;;;;5042325;28;20182;-56
2022/10/05 02:14:46;;;;;;;31.63;26.20;;;16.80;83.30;;;;;;5066888;28;20055;-56
2022/10/05 02:17:31;;;;;;;31.60;24.77;;;16.80;83.20;;;;;;5068887;28;20055;-57
2022/10/05 02:20:01;;;;;;;35.78;27.60;;;16.80;83.40;;;;;;5048686;28;20029;-57
2022/10/05 02:22:45;;;;;;;32.55;27.23;;;16.80;83.30;;;;;;5036214;28;20025;-57
2022/10/05 02:25:17;;;;;;;31.13;25.90;;;16.80;83.30;;;;;;5066293;28;20036;-56
2022/10/05 02:28:08;;;;;;;32.78;25.95;;;16.80;83.20;;;;;;5069010;28;20107;-57
2022/10/05 02:30:42;;;;;;;32.95;27.10;;;16.80;83.00;;;;;;5034237;28;20539;-57
2022/10/05 02:33:12;;;;;;;34.55;27.85;;;16.80;82.90;;;;;;5051019;28;20059;-57
2022/10/05 02:35:38;;;;;;;37.33;27.70;;;16.80;82.90;;;;;;5041272;28;20033;-57
2022/10/05 02:38:16;;;;;;;36.63;27.38;;;16.80;83.00;;;;;;5043516;28;20032;-55
2022/10/05 02:41:08;;;;;;;34.03;25.88;;;16.80;83.20;;;;;;5080534;23;20049;-60
2022/10/05 02:43:52;;;;;;;36.95;28.38;;;16.70;83.30;;;;;;5033188;28;20068;-57
2022/10/05 02:46:44;;;;;;;31.77;26.65;;;16.60;83.40;;;;;;5017120;28;20026;-57
2022/10/05 02:49:42;;;;;;;35.13;28.25;;;16.70;83.50;;;;;;5034767;28;20390;-58
2022/10/05 02:52:38;;;;;;;37.30;28.53;;;16.70;83.60;;;;;;5011271;28;20026;-60
2022/10/05 02:55:22;;;;;;;38.22;30.90;;;16.70;83.60;;;;;;5014618;28;20272;-58
2022/10/05 02:58:14;;;;;;;35.80;28.25;;;16.70;83.50;;;;;;5015095;28;20122;-59
2022/10/05 03:01:06;;;;;;;36.80;29.52;;;16.70;83.60;;;;;;4991506;28;20034;-60
2022/10/05 03:03:40;;;;;;;36.28;28.63;;;16.70;83.70;;;;;;5001983;28;20530;-60
2022/10/05 03:06:16;;;;;;;37.97;28.42;;;16.70;83.90;;;;;;5014590;28;20037;-59
2022/10/05 03:08:58;;;;;;;35.63;29.17;;;16.70;84.00;;;;;;4997004;28;20369;-58
2022/10/05 03:12:04;;;;;;;38.08;30.73;;;16.70;84.10;;;;;;5014652;28;20033;-57
2022/10/05 03:14:53;;;;;;;34.15;28.77;;;16.60;84.20;;;;;;5022543;28;20038;-60
2022/10/05 03:17:21;;;;;;;;;;;16.60;84.50;;;;;;4997089;28;20030;-55
2022/10/05 03:20:06;;;;;;;37.53;29.00;;;16.50;84.70;;;;;;4995716;28;19912;-55
2022/10/05 03:23:03;;;;;;;35.65;27.83;;;16.50;84.50;;;;;;4998282;28;20033;-57
2022/10/05 03:25:57;;;;;;;38.00;27.10;;;16.50;84.40;;;;;;5014037;28;20385;-56
2022/10/05 03:28:27;;;;;;;42.30;28.73;;;16.50;84.20;;;;;;4998801;28;20427;-57
2022/10/05 03:31:01;;;;;;;33.78;27.73;;;16.50;84.00;;;;;;5014064;28;20036;-59
2022/10/05 03:33:43;;;;;;;35.78;27.02;;;16.50;83.90;;;;;;5014516;28;20024;-58
2022/10/05 03:36:24;;;;;;;38.90;29.48;;;16.50;83.90;;;;;;4996421;28;20484;-57
2022/10/05 03:39:09;;;;;;;38.65;28.85;;;16.40;84.00;;;;;;5013796;28;20032;-60
2022/10/05 03:41:35;;;;;;;37.63;29.08;;;16.40;83.90;;;;;;5011756;28;20030;-58
2022/10/05 03:44:11;;;;;;;35.83;27.80;;;16.40;84.00;;;;;;5013758;28;20089;-58
2022/10/05 03:47:11;;;;;;;45.83;30.90;;;16.40;84.00;;;;;;5013826;28;20109;-58
2022/10/05 03:50:15;;;;;;;41.85;28.98;;;16.40;84.00;;;;;;4994336;28;20026;-58
2022/10/05 03:52:49;;;;;;;38.83;28.80;;;16.30;84.10;;;;;;5010622;28;20558;-59
2022/10/05 03:55:44;;;;;;;38.13;28.95;;;16.30;84.20;;;;;;5013086;28;20435;-61
2022/10/05 03:58:28;;;;;;;32.20;28.00;;;16.30;84.20;;;;;;5013387;28;20428;-57
2022/10/05 04:01:00;;;;;;;33.15;27.92;;;16.30;84.20;;;;;;5013150;28;20104;-56
2022/10/05 04:03:38;;;;;;;34.95;29.08;;;16.30;84.40;;;;;;5013901;28;20034;-58
2022/10/05 04:06:33;;;;;;;35.35;26.05;;;16.10;84.70;;;;;;4996131;28;20129;-56
2022/10/05 04:09:08;;;;;;;31.95;27.30;;;15.90;85.30;;;;;;5013690;28;20084;-54
2022/10/05 04:11:47;;;;;;;34.97;27.17;;;15.70;85.80;;;;;;5013690;28;20022;-57
2022/10/05 04:14:30;;;;;;;38.78;27.20;;;15.80;85.50;;;;;;5013653;28;20041;-58
2022/10/05 04:17:20;;;;;;;36.58;26.67;;;16.00;85.40;;;;;;4996938;28;20404;-54
2022/10/05 04:20:08;;;;;;;35.83;28.13;;;16.10;84.80;;;;;;4995825;28;20026;-57
2022/10/05 04:22:35;;;;;;;34.63;28.35;;;16.10;84.50;;;;;;5013424;28;20022;-54
2022/10/05 04:25:16;;;;;;;40.50;28.13;;;16.10;84.30;;;;;;5013489;28;20041;-59
2022/10/05 04:27:58;;;;;;;36.05;29.00;;;16.10;84.50;;;;;;5013465;28;20029;-57
2022/10/05 04:30:24;;;;;;;37.95;27.05;;;16.10;84.50;;;;;;5013180;28;20025;-54
2022/10/05 04:32:56;;;;;;;36.97;28.70;;;16.10;84.70;;;;;;5013576;28;20380;-56
2022/10/05 04:36:01;;;;;;;41.28;29.38;;;16.00;85.30;;;;;;5013216;28;20022;-55
2022/10/05 04:38:54;;;;;;;39.55;30.73;;;15.80;86.30;;;;;;5013096;28;20484;-54
2022/10/05 04:41:34;;;;;;;39.15;29.13;;;15.80;86.20;;;;;;5012935;28;20431;-56
2022/10/05 04:44:12;;;;;;;37.10;29.13;;;15.90;86.00;;;;;;5013060;28;20021;-57
2022/10/05 04:47:22;;;;;;;39.33;30.52;;;16.00;86.20;;;;;;5013147;28;20022;-58
2022/10/05 04:50:00;;;;;;;40.35;30.35;;;16.00;86.30;;;;;;4958366;28;20040;-59
2022/10/05 04:52:52;;;;;;;50.50;31.58;;;16.00;86.20;;;;;;5012996;28;20101;-56
2022/10/05 04:55:29;;;;;;;42.38;28.38;;;16.00;86.00;;;;;;5012878;28;20026;-56
2022/10/05 04:58:17;;;;;;;38.03;28.13;;;16.00;86.50;;;;;;5012981;28;20029;-57
2022/10/05 05:01:12;;;;;;;42.78;30.35;;;15.80;87.10;;;;;;5012846;28;20014;-54
2022/10/05 05:03:52;;;;;;;38.30;29.63;;;15.80;87.60;;;;;;5012810;28;20065;-55
2022/10/05 05:06:37;;;;;;;35.42;27.45;;;15.70;87.80;;;;;;5012093;28;20022;-56
2022/10/05 05:09:17;;;;;;;38.17;28.08;;;15.60;88.10;;;;;;4994851;28;20400;-56
2022/10/05 05:12:13;;;;;;;44.55;32.85;;;15.60;87.70;;;;;;5012652;28;20018;-55
2022/10/05 05:14:54;;;;;;;43.67;30.83;;;15.70;87.30;;;;;;5012803;28;20395;-57
2022/10/05 05:17:55;;;;;;;37.00;30.13;;;15.80;86.80;;;;;;4995178;28;20468;-54
2022/10/05 05:20:45;;;;;;;39.00;30.75;;;15.90;86.70;;;;;;5012377;28;20507;-57
2022/10/05 05:23:17;;;;;;;38.80;30.73;;;15.90;86.70;;;;;;5012182;28;20030;-59
2022/10/05 05:26:04;;;;;;;40.83;31.23;;;16.00;86.40;;;;;;5012384;28;20022;-56
2022/10/05 05:28:57;;;;;;;45.42;30.38;;;16.00;86.30;;;;;;5012351;28;20022;-58
2022/10/05 05:31:37;;;;;;;42.70;31.83;;;16.00;86.20;;;;;;5012167;28;20109;-56
2022/10/05 05:34:17;;;;;;;41.05;31.48;;;16.00;86.30;;;;;;4994630;28;20065;-57
2022/10/05 05:36:53;;;;;;;46.67;33.22;;;16.00;86.40;;;;;;5012304;28;20041;-59
2022/10/05 05:39:28;;;;;;;42.30;32.53;;;16.00;86.30;;;;;;5012948;28;20056;-58
2022/10/05 05:41:56;;;;;;;40.35;31.05;;;16.10;86.30;;;;;;5011946;28;20404;-57
2022/10/05 05:44:45;;;;;;;51.17;32.95;;;16.10;86.00;;;;;;5012054;28;20029;-54
2022/10/05 05:47:29;;;;;;;41.38;30.63;;;16.20;85.90;;;;;;5012127;28;20017;-58
2022/10/05 05:50:17;;;;;;;43.03;32.03;;;16.30;85.80;;;;;;5012043;28;20025;-57
2022/10/05 05:52:51;;;;;;;41.28;32.20;;;16.30;85.70;;;;;;5011918;28;20511;-58
2022/10/05 05:55:26;;;;;;;41.42;32.60;;;16.30;85.80;;;;;;4994337;28;20113;-57
2022/10/05 05:57:55;;;;;;;46.88;33.70;;;16.30;85.70;;;;;;5011993;28;20104;-57
2022/10/05 06:00:24;;;;;;;44.75;33.45;;;16.30;85.70;;;;;;5011693;28;20037;-57
2022/10/05 06:03:02;;;;;;;40.78;32.72;;;16.40;85.80;;;;;;4994055;28;20039;-57
2022/10/05 06:05:31;;;;;;;40.20;31.20;;;16.40;85.80;;;;;;5011854;28;20026;-56
2022/10/05 06:08:02;;;;;;;46.53;31.38;;;16.50;85.70;;;;;;4994171;28;20030;-60
2022/10/05 06:10:33;;;;;;;40.78;32.45;;;16.50;85.60;;;;;;5011605;28;20476;-54
2022/10/05 06:13:08;;;;;;;44.80;31.80;;;16.50;85.50;;;;;;5011756;28;20022;-57
2022/10/05 06:15:43;;;;;;;40.63;31.23;;;16.60;85.50;;;;;;5011763;28;20030;-58
2022/10/05 06:18:15;;;;;;;43.05;31.13;;;16.60;85.50;;;;;;5014578;28;20104;-59
2022/10/05 06:20:59;;;;;;;44.08;30.67;;;16.60;85.70;;;;;;5016162;28;20052;-58
2022/10/05 06:23:32;;;;;;;42.30;31.83;;;16.70;85.70;;;;;;5015681;28;20461;-55
2022/10/05 06:26:13;;;;;;;44.83;31.20;;;16.70;85.90;;;;;;5015727;28;20033;-56
2022/10/05 06:28:40;;;;;;;43.85;30.65;;;16.70;85.90;;;;;;5015697;28;20399;-57
2022/10/05 06:31:13;;;;;;;42.95;32.47;;;16.70;85.80;;;;;;5015589;28;20084;-57
2022/10/05 06:34:18;;;;;;;45.72;33.25;;;16.70;86.10;;;;;;5015642;28;20530;-57
2022/10/05 06:36:57;;;;;;;47.72;32.85;;;16.80;86.00;;;;;;4977631;28;20042;-56
2022/10/05 06:39:47;;;;;;;43.30;31.85;;;16.80;85.90;;;;;;5015445;28;20416;-57
2022/10/05 06:42:31;;;;;;;43.75;32.70;;;16.80;85.90;;;;;;5015365;28;20034;-56
2022/10/05 06:45:16;;;;;;;42.58;30.65;;;16.90;85.90;;;;;;5015327;28;20037;-57
2022/10/05 06:48:14;;;;;;;40.38;30.35;;;16.90;85.90;;;;;;4965257;28;20572;-55
2022/10/05 06:50:47;;;;;;;39.13;31.27;;;17.00;85.90;;;;;;4977182;28;20044;-57
2022/10/05 06:53:35;;;;;;;40.50;32.97;;;17.10;85.70;;;;;;5015398;28;20030;-56
2022/10/05 06:56:11;;;;;;;37.72;30.48;;;17.10;85.60;;;;;;5015192;28;20026;-56
2022/10/05 06:58:54;;;;;;;51.90;30.65;;;17.10;85.70;;;;;;5015017;28;20033;-54
2022/10/05 07:01:38;;;;;;;41.83;30.05;;;17.20;85.70;;;;;;5015009;28;20030;-57
2022/10/05 07:04:33;;;;;;;38.95;30.55;;;17.20;85.70;;;;;;5014996;28;20026;-57
2022/10/05 07:07:22;;;;;;;42.15;33.47;;;17.30;85.70;;;;;;5009997;28;20109;-56
2022/10/05 07:10:25;;;;;;;40.78;32.15;;;17.40;86.00;;;;;;5014745;28;20476;-56
2022/10/05 07:13:17;;;;;;;39.45;30.80;;;17.40;85.90;;;;;;4997361;28;20496;-57
2022/10/05 07:15:55;;;;;;;40.40;29.88;;;17.50;86.40;;;;;;5015122;28;20527;-56
2022/10/05 07:18:53;;;;;;;37.53;28.83;;;17.40;87.30;;;;;;5014621;28;20069;-56
2022/10/05 07:21:42;;;;;;;34.97;28.77;;;17.20;88.50;;;;;;4997097;28;20535;-55
2022/10/05 07:24:21;;;;;;;40.55;29.77;;;17.80;99.90;;;;;;5014481;28;20287;-58
2022/10/05 07:26:54;;;;;;;39.75;29.70;;;;;;;;;;4996952;28;20030;-56
2022/10/05 07:29:51;;;;;;;36.15;28.27;;;17.60;88.10;;;;;;5014113;28;20022;-57
2022/10/05 07:32:34;;;;;;;34.05;27.15;;;17.70;87.90;;;;;;5014599;28;20030;-57
2022/10/05 07:38:30;;;;;;;39.72;26.88;;;17.80;88.30;;;;;;5014628;28;20064;-55
2022/10/05 07:41:15;;;;;;;204.23;144.18;;;17.90;88.40;;;;;;5014228;28;20049;-55
2022/10/05 07:43:47;;;;;;;37.65;28.88;;;17.90;88.70;;;;;;5014238;28;20030;-54
2022/10/05 07:46:45;;;;;;;34.05;23.83;;;18.00;89.00;;;;;;5014218;28;20026;-57
2022/10/05 07:49:23;;;;;;;31.83;25.25;;;18.10;89.20;;;;;;5014032;28;20026;-56
2022/10/05 07:51:58;;;;;;;33.92;25.40;;;18.20;88.90;;;;;;5014068;28;20068;-55
2022/10/05 07:54:35;;;;;;;31.08;23.20;;;18.20;88.50;;;;;;5014072;28;20037;-57
2022/10/05 07:57:06;;;;;;;39.22;26.05;;;18.30;88.10;;;;;;5014104;28;20535;-59
2022/10/05 08:00:05;;;;;;;32.15;24.92;;;18.40;88.20;;;;;;5013748;28;20117;-58
2022/10/05 08:02:41;;;;;;;31.17;24.45;;;18.40;88.40;;;;;;5014070;28;20029;-58
2022/10/05 08:05:07;;;;;;;40.88;25.67;;;18.50;88.10;;;;;;5013871;28;20029;-57
2022/10/05 08:07:34;;;;;;;32.75;23.38;;;18.50;88.20;;;;;;5013828;28;20072;-56
2022/10/05 08:10:28;;;;;;;30.42;24.70;;;18.60;87.90;;;;;;5013519;28;20374;-58
2022/10/05 08:13:16;;;;;;;32.28;25.70;;;18.70;87.80;;;;;;5013824;28;20021;-55
2022/10/05 08:15:47;;;;;;;32.50;25.20;;;18.80;87.60;;;;;;5013750;28;20025;-59
2022/10/05 08:18:19;;;;;;;33.90;25.13;;;18.90;87.30;;;;;;5013473;28;20156;-56
2022/10/05 08:20:57;;;;;;;27.40;23.27;;;19.00;87.20;;;;;;5013468;28;20025;-59
2022/10/05 08:23:44;;;;;;;35.40;24.20;;;19.10;87.30;;;;;;5013437;28;20033;-56
2022/10/05 08:26:10;;;;;;;29.42;23.90;;;19.10;87.00;;;;;;5013604;28;20022;-56
2022/10/05 08:28:41;;;;;;;31.48;23.92;;;19.20;87.00;;;;;;5013242;28;20026;-57
2022/10/05 08:31:07;;;;;;;32.55;24.52;;;19.30;86.80;;;;;;5013513;28;20033;-57
2022/10/05 08:34:07;;;;;;;23.80;20.40;;;19.40;86.50;;;;;;5013477;28;20037;-58
2022/10/05 08:36:54;;;;;;;34.63;22.58;;;19.40;86.20;;;;;;5009188;28;20034;-56
2022/10/05 08:39:23;;;;;;;28.43;23.67;;;19.40;86.40;;;;;;4995293;28;20030;-60
2022/10/05 08:42:25;;;;;;;27.65;22.50;;;19.50;86.60;;;;;;5013374;28;20308;-56
2022/10/05 08:45:47;;;;;;;26.48;20.83;;;19.60;86.50;;;;;;5013223;28;20022;-58
2022/10/05 08:48:32;;;;;;;27.60;22.65;;;19.70;85.80;;;;;;4914296;29;20133;-59
2022/10/05 08:51:38;;;;;;;25.75;22.17;;;19.80;85.40;;;;;;4914318;29;20029;-58
2022/10/05 08:54:22;;;;;;;26.95;21.27;;;19.80;85.80;;;;;;5012284;28;20087;-57
2022/10/05 08:57:15;;;;;;;24.75;21.40;;;19.90;85.50;;;;;;5012958;28;20083;-59
2022/10/05 09:00:19;;;;;;;26.98;21.17;;;20.00;85.50;;;;;;5012600;28;20029;-58
2022/10/05 09:03:21;;;;;;;28.52;22.27;;;20.10;85.10;;;;;;5012843;28;20026;-58
2022/10/05 09:06:05;;;;;;;30.25;22.83;;;20.20;85.10;;;;;;5012806;28;20025;-58
2022/10/05 09:09:15;;;;;;;24.63;20.65;;;20.20;84.80;;;;;;4994967;28;20477;-58
2022/10/05 09:12:22;;;;;;;29.00;22.02;;;20.30;84.30;;;;;;4999447;28;20034;-58
2022/10/05 09:15:24;;;;;;;26.85;19.70;;;20.30;84.50;;;;;;5012620;28;20036;-58
2022/10/05 09:18:17;;;;;;;25.23;18.40;;;20.30;84.30;;;;;;5012609;28;20429;-57
2022/10/05 09:21:04;;;;;;;24.75;18.83;;;20.40;84.10;;;;;;5012427;28;20041;-58
2022/10/05 09:23:41;;;;;;;23.48;19.25;;;20.50;83.50;;;;;;5012475;28;20030;-58
2022/10/05 09:26:29;;;;;;;27.42;19.98;;;20.50;83.60;;;;;;4994849;28;20040;-58
2022/10/05 09:29:28;;;;;;;21.00;15.77;;;20.60;82.80;;;;;;5012321;28;20033;-57
2022/10/05 09:32:26;;;;;;;22.63;16.50;;;20.70;81.40;;;;;;5012399;28;20743;-58
2022/10/05 09:35:00;;;;;;;24.92;17.67;;;20.70;82.10;;;;;;5012322;28;20030;-59
2022/10/05 09:37:57;;;;;;;21.08;15.60;;;20.80;82.10;;;;;;5012236;28;20030;-58
2022/10/05 09:41:05;;;;;;;21.98;15.73;;;20.90;80.10;;;;;;5011961;28;20420;-58
2022/10/05 09:43:46;;;;;;;21.53;16.73;;;20.90;81.60;;;;;;5012053;28;20026;-55
2022/10/05 09:47:03;;;;;;;19.23;15.05;;;21.00;81.10;;;;;;5012167;28;20068;-55
2022/10/05 09:50:07;;;;;;;16.77;13.60;;;21.10;79.70;;;;;;4971078;28;20029;-56
2022/10/05 09:52:54;;;;;;;19.25;15.35;;;21.10;79.60;;;;;;5011899;28;20018;-57
2022/10/05 09:55:41;;;;;;;16.88;13.63;;;21.20;80.10;;;;;;5012016;28;20037;-57
2022/10/05 09:58:29;;;;;;;16.92;14.35;;;21.20;79.60;;;;;;5011822;28;20092;-58
2022/10/05 10:01:06;;;;;;;24.33;14.77;;;21.30;79.20;;;;;;5011929;28;20503;-57
2022/10/05 10:04:05;;;;;;;17.05;14.07;;;21.40;78.60;;;;;;5011896;28;20030;-57
2022/10/05 10:07:08;;;;;;;19.13;14.98;;;21.50;77.50;;;;;;5011702;28;20025;-59
2022/10/05 10:09:55;;;;;;;17.83;14.35;;;21.50;76.50;;;;;;5011654;28;20428;-59
2022/10/05 10:12:49;;;;;;;16.60;12.98;;;21.50;78.10;;;;;;4994239;28;20026;-59
2022/10/05 10:15:26;;;;;;;15.70;14.07;;;21.70;77.90;;;;;;5011295;28;20496;-59
2022/10/05 10:18:33;;;;;;;21.55;13.32;;;21.70;77.50;;;;;;5010334;28;20393;-58
2022/10/05 10:21:13;;;;;;;18.80;14.23;;;21.80;76.50;;;;;;4931961;29;20032;-58
2022/10/05 10:24:16;;;;;;;15.50;13.77;;;21.80;76.40;;;;;;4994315;28;20096;-59
2022/10/05 10:27:19;;;;;;;20.40;13.63;;;21.90;76.70;;;;;;5011863;28;20061;-57
2022/10/05 10:29:50;;;;;;;15.80;12.30;;;21.80;74.50;;;;;;4993474;28;20038;-58
2022/10/05 10:32:28;;;;;;;16.17;12.93;;;21.70;76.00;;;;;;5010821;28;20022;-58
2022/10/05 10:35:18;;;;;;;17.23;11.18;;;21.80;75.70;;;;;;5011054;28;20041;-56
2022/10/05 10:38:08;;;;;;;13.30;10.35;;;21.90;71.40;;;;;;4998335;28;20064;-58
2022/10/05 10:40:46;;;;;;;15.07;11.35;;;21.90;72.50;;;;;;5011283;28;20045;-59
2022/10/05 10:43:38;;;;;;;12.85;10.40;;;21.90;74.10;;;;;;5011870;28;20026;-58
2022/10/05 10:46:15;;;;;;;12.50;11.07;;;22.10;73.80;;;;;;5010783;28;20029;-59
2022/10/05 10:49:20;;;;;;;17.60;10.63;;;22.30;72.80;;;;;;5011269;28;20026;-59
2022/10/05 10:52:01;;;;;;;16.40;11.18;;;22.30;71.10;;;;;;5010862;28;20030;-58
2022/10/05 10:54:42;;;;;;;14.85;11.40;;;22.50;71.50;;;;;;5010908;28;20057;-59
2022/10/05 10:57:14;;;;;;;14.05;10.30;;;22.60;71.20;;;;;;4991056;28;20409;-59
2022/10/05 10:59:42;;;;;;;11.77;9.68;;;22.70;71.40;;;;;;4984213;28;20034;-58
2022/10/05 11:02:47;;;;;;;12.55;9.45;;;22.80;69.70;;;;;;5009597;28;20050;-59
2022/10/05 11:05:22;;;;;;;11.98;10.13;;;22.90;69.00;;;;;;5014909;28;20037;-58
2022/10/05 11:08:05;;;;;;;13.63;11.10;;;22.80;68.10;;;;;;5011403;28;20108;-57
2022/10/05 11:10:51;;;;;;;16.50;11.15;;;22.80;68.60;;;;;;5019796;28;20076;-58
2022/10/05 11:13:41;;;;;;;17.13;11.20;;;22.80;67.10;;;;;;5014075;28;20026;-58
2022/10/05 11:16:23;;;;;;;10.55;9.00;;;22.70;68.70;;;;;;4998555;28;20030;-58
2022/10/05 11:19:14;;;;;;;11.88;8.93;;;22.80;69.60;;;;;;5002446;28;20052;-58
2022/10/05 11:21:48;;;;;;;9.32;7.32;;;23.00;65.90;;;;;;5014624;28;20073;-59
2022/10/05 11:24:14;;;;;;;10.82;8.60;;;23.20;66.90;;;;;;5014528;28;20408;-59
2022/10/05 11:26:48;;;;;;;11.05;7.28;;;23.30;64.80;;;;;;5015123;28;20097;-59
2022/10/05 11:29:20;;;;;;;11.60;7.70;;;23.40;64.10;;;;;;4998324;28;20522;-59
2022/10/05 11:32:15;;;;;;;14.02;10.25;;;23.40;64.80;;;;;;5014250;28;20100;-57
2022/10/05 11:35:04;;;;;;;19.35;11.07;;;23.50;64.20;;;;;;5014480;28;20029;-59
2022/10/05 11:37:35;;;;;;;13.45;10.60;;;23.40;63.80;;;;;;5014546;28;20037;-60
2022/10/05 11:40:21;;;;;;;15.68;11.02;;;23.40;65.90;;;;;;4996456;28;20038;-58
2022/10/05 11:42:56;;;;;;;20.23;11.50;;;23.60;65.10;;;;;;5013994;28;20073;-59
2022/10/05 11:45:51;;;;;;;14.40;9.60;;;23.60;66.00;;;;;;5014085;28;20029;-59
2022/10/05 11:48:48;;;;;;;14.38;9.98;;;23.70;65.40;;;;;;4993069;28;20042;-57
2022/10/05 11:51:37;;;;;;;13.27;9.90;;;23.90;62.70;;;;;;4994540;28;20026;-59
2022/10/05 11:54:31;;;;;;;18.70;10.70;;;23.90;62.90;;;;;;5009092;28;20034;-57
2022/10/05 11:57:18;;;;;;;13.23;10.55;;;23.90;63.70;;;;;;5014031;28;20030;-59
2022/10/05 12:00:10;;;;;;;16.52;12.50;;;23.90;61.30;;;;;;5013682;28;20062;-56
2022/10/05 12:02:41;;;;;;;14.93;10.75;;;23.90;63.60;;;;;;5013848;28;20104;-59
2022/10/05 12:05:17;;;;;;;13.60;10.15;;;23.90;62.70;;;;;;5013558;28;20037;-58
2022/10/05 12:07:45;;;;;;;16.08;10.13;;;23.90;63.10;;;;;;5013848;28;20057;-59
2022/10/05 12:10:27;;;;;;;13.73;10.10;;;24.00;62.90;;;;;;5013352;28;20034;-57
2022/10/05 12:13:37;;;;;;;13.70;9.93;;;24.00;61.90;;;;;;5013619;28;20014;-59
2022/10/05 12:16:35;;;;;;;15.70;10.45;;;24.00;61.10;;;;;;4983070;28;20037;-59
2022/10/05 12:19:28;;;;;;;12.07;10.77;;;24.00;63.10;;;;;;5012797;28;20072;-60
2022/10/05 12:22:02;;;;;;;15.60;10.57;;;24.00;62.30;;;;;;5013058;28;20037;-59
2022/10/05 12:24:34;;;;;;;14.95;11.85;;;23.90;63.00;;;;;;5013230;28;20053;-59
2022/10/05 12:27:04;;;;;;;18.15;12.35;;;23.90;63.10;;;;;;5013576;28;20480;-58
2022/10/05 12:29:48;;;;;;;13.38;11.82;;;23.90;62.80;;;;;;5013576;28;20485;-59
2022/10/05 12:32:28;;;;;;;15.75;11.32;;;24.20;61.80;;;;;;5011587;28;20089;-59
2022/10/05 12:35:12;;;;;;;16.23;11.52;;;24.40;61.30;;;;;;5013335;28;20384;-59
2022/10/05 12:37:53;;;;;;;18.35;12.95;;;24.70;59.80;;;;;;5013369;28;20411;-58
2022/10/05 12:40:25;;;;;;;14.85;10.57;;;24.90;58.40;;;;;;5012705;28;20121;-59
2022/10/05 12:43:12;;;;;;;19.33;12.63;;;25.20;57.70;;;;;;5012781;28;20065;-59
2022/10/05 12:46:01;;;;;;;16.58;12.45;;;25.50;56.70;;;;;;5013239;28;20088;-60
2022/10/05 12:48:30;;;;;;;14.15;11.70;;;25.50;54.60;;;;;;5012661;28;20401;-59
2022/10/05 12:51:33;;;;;;;14.52;11.68;;;25.80;56.60;;;;;;5012875;28;20385;-60
2022/10/05 12:54:15;;;;;;;14.15;11.50;;;26.10;56.30;;;;;;4993372;28;20551;-59
2022/10/05 12:56:55;;;;;;;19.80;13.02;;;26.30;55.60;;;;;;4975848;28;20378;-58
2022/10/05 12:59:43;;;;;;;13.63;12.02;;;26.20;53.50;;;;;;4993074;28;20027;-59
2022/10/05 13:02:34;;;;;;;27.33;13.23;;;26.10;54.30;;;;;;4999004;28;20429;-60
2022/10/05 13:05:09;;;;;;;15.23;12.43;;;26.40;55.50;;;;;;4995215;28;20128;-59
2022/10/05 13:07:52;;;;;;;18.05;13.38;;;26.60;55.40;;;;;;5012452;28;20076;-58
2022/10/05 13:10:27;;;;;;;14.48;12.98;;;26.90;52.50;;;;;;5012547;28;20716;-58
2022/10/05 13:13:22;;;;;;;17.33;12.73;;;26.90;54.30;;;;;;5012578;28;20543;-57
2022/10/05 13:16:20;;;;;;;13.20;11.55;;;27.00;53.50;;;;;;4993011;28;20045;-59
2022/10/05 13:19:39;;;;;;;15.10;12.50;;;26.90;54.10;;;;;;4975356;28;20105;-58
2022/10/05 13:22:21;;;;;;;18.23;13.90;;;26.60;52.20;;;;;;4899873;29;20091;-59
2022/10/05 13:24:58;;;;;;;15.43;12.93;;;26.30;54.40;;;;;;4994265;28;20444;-59
2022/10/05 13:27:35;;;;;;;19.55;13.38;;;26.10;53.30;;;;;;5011650;28;20028;-59
2022/10/05 13:30:15;;;;;;;18.92;14.75;;;26.00;54.20;;;;;;5012035;28;20040;-59
2022/10/05 13:32:46;;;;;;;16.15;14.35;;;25.80;53.40;;;;;;5016267;28;20060;-59
2022/10/05 13:35:57;;;;;;;15.70;14.15;;;25.60;55.60;;;;;;5011880;28;20493;-59
2022/10/05 13:38:23;;;;;;;18.35;14.40;;;25.60;56.30;;;;;;4912410;29;20099;-60
2022/10/05 13:41:02;;;;;;;18.70;15.00;;;25.60;56.40;;;;;;4988077;28;20041;-58
2022/10/05 13:43:52;;;;;;;21.15;14.55;;;25.80;56.20;;;;;;4992367;28;20034;-58
2022/10/05 13:46:43;;;;;;;31.65;24.92;;;26.70;56.60;;;;;;4986213;28;20109;-55
2022/10/05 13:49:49;;;;;;;17.85;15.40;;;26.60;55.30;;;;;;5011987;28;20237;-57
2022/10/05 13:52:46;;;;;;;23.45;21.23;;;27.40;53.50;;;;;;5006610;28;20088;-59
2022/10/05 13:55:17;;;;;;;20.23;15.25;;;28.40;51.20;;;;;;5012147;28;20080;-57